sensor_id;sensor_type;location;lat;lon;timestamp;pressure;altitude;pressure_sealevel;temperature;humidity
9538;BME280;4807;48.024;11.726;2022-10-16T00:01:59;95052.69;;;11.78;86.89
9538;BME280;4807;48.024;11.726;2022-10-16T00:05:08;95048.34;;;11.71;87.33
9538;BME280;4807;48.024;11.726;2022-10-16T00:08:18;95042.59;;;11.74;87.19
9538;BME280;4807;48.024;11.726;2022-10-16T00:11:30;95040.56;;;11.76;87.32
9538;BME280;4807;48.024;11.726;2022-10-16T00:14:40;95039.50;;;11.70;88.20
9538;BME280;4807;48.024;11.726;2022-10-16T00:17:50;95038.94;;;11.81;87.65
9538;BME280;4807;48.024;11.726;2022-10-16T00:21:03;95046.31;;;11.79;87.83
9538;BME280;4807;48.024;11.726;2022-10-16T00:24:14;95058.00;;;12.11;86.89
9538;BME280;4807;48.024;11.726;2022-10-16T00:27:23;95057.19;;;11.84;88.05
9538;BME280;4807;48.024;11.726;2022-10-16T00:30:33;95054.69;;;11.70;88.06
9538;BME280;4807;48.024;11.726;2022-10-16T00:33:42;95066.44;;;11.82;87.58
9538;BME280;4807;48.024;11.726;2022-10-16T00:36:51;95061.88;;;11.69;87.79
9538;BME280;4807;48.024;11.726;2022-10-16T00:40:22;95055.53;;;11.70;88.33
9538;BME280;4807;48.024;11.726;2022-10-16T00:43:39;95064.75;;;11.55;88.64
9538;BME280;4807;48.024;11.726;2022-10-16T00:46:49;95063.91;;;11.61;88.19
9538;BME280;4807;48.024;11.726;2022-10-16T00:50:04;95051.41;;;11.61;88.34
9538;BME280;4807;48.024;11.726;2022-10-16T00:53:15;95054.91;;;11.68;87.38
9538;BME280;4807;48.024;11.726;2022-10-16T00:56:26;95052.91;;;11.83;87.82
9538;BME280;4807;48.024;11.726;2022-10-16T00:59:38;95056.53;;;11.69;88.79
9538;BME280;4807;48.024;11.726;2022-10-16T01:02:53;95067.66;;;11.79;88.32
9538;BME280;4807;48.024;11.726;2022-10-16T01:06:17;95067.84;;;11.78;87.98
9538;BME280;4807;48.024;11.726;2022-10-16T01:09:37;95055.72;;;11.69;88.62
9538;BME280;4807;48.024;11.726;2022-10-16T01:12:54;95050.38;;;11.69;87.91
9538;BME280;4807;48.024;11.726;2022-10-16T01:16:13;95050.84;;;11.79;87.70
9538;BME280;4807;48.024;11.726;2022-10-16T01:19:47;95060.47;;;11.67;88.41
9538;BME280;4807;48.024;11.726;2022-10-16T01:23:16;95068.03;;;11.63;88.65
9538;BME280;4807;48.024;11.726;2022-10-16T01:26:44;95071.78;;;11.75;88.10
9538;BME280;4807;48.024;11.726;2022-10-16T01:30:04;95071.13;;;11.73;88.46
9538;BME280;4807;48.024;11.726;2022-10-16T01:33:20;95082.59;;;11.54;88.97
9538;BME280;4807;48.024;11.726;2022-10-16T01:36:38;95067.81;;;11.52;88.70
9538;BME280;4807;48.024;11.726;2022-10-16T01:39:50;95068.22;;;11.48;88.62
9538;BME280;4807;48.024;11.726;2022-10-16T01:43:06;95071.72;;;11.62;87.86
9538;BME280;4807;48.024;11.726;2022-10-16T01:46:21;95074.38;;;11.56;87.40
9538;BME280;4807;48.024;11.726;2022-10-16T01:49:35;95077.06;;;11.49;88.03
9538;BME280;4807;48.024;11.726;2022-10-16T01:52:49;95082.78;;;11.33;88.34
9538;BME280;4807;48.024;11.726;2022-10-16T01:56:00;95079.03;;;11.27;88.27
9538;BME280;4807;48.024;11.726;2022-10-16T01:59:13;95070.44;;;11.25;87.23
9538;BME280;4807;48.024;11.726;2022-10-16T02:02:28;95074.97;;;11.38;87.05
9538;BME280;4807;48.024;11.726;2022-10-16T02:05:45;95076.00;;;11.37;87.61
9538;BME280;4807;48.024;11.726;2022-10-16T02:08:54;95086.63;;;11.24;87.64
9538;BME280;4807;48.024;11.726;2022-10-16T02:12:10;95081.50;;;11.16;87.85
9538;BME280;4807;48.024;11.726;2022-10-16T02:15:20;95074.91;;;11.12;88.25
9538;BME280;4807;48.024;11.726;2022-10-16T02:18:30;95070.00;;;11.08;88.63
9538;BME280;4807;48.024;11.726;2022-10-16T02:21:46;95069.19;;;11.15;87.89
9538;BME280;4807;48.024;11.726;2022-10-16T02:25:03;95057.13;;;11.25;87.91
9538;BME280;4807;48.024;11.726;2022-10-16T02:28:19;95063.47;;;11.18;88.09
9538;BME280;4807;48.024;11.726;2022-10-16T02:31:32;95074.53;;;11.21;88.14
9538;BME280;4807;48.024;11.726;2022-10-16T02:34:45;95082.31;;;11.23;87.22
9538;BME280;4807;48.024;11.726;2022-10-16T02:37:55;95083.13;;;11.17;87.94
9538;BME280;4807;48.024;11.726;2022-10-16T02:41:04;95074.91;;;11.12;88.35
9538;BME280;4807;48.024;11.726;2022-10-16T02:44:13;95077.38;;;11.06;87.44
9538;BME280;4807;48.024;11.726;2022-10-16T02:47:22;95082.25;;;10.96;87.94
9538;BME280;4807;48.024;11.726;2022-10-16T02:50:32;95070.56;;;10.97;87.99
9538;BME280;4807;48.024;11.726;2022-10-16T02:53:40;95076.06;;;10.89;88.30
9538;BME280;4807;48.024;11.726;2022-10-16T02:56:48;95079.78;;;10.95;88.17
9538;BME280;4807;48.024;11.726;2022-10-16T02:59:57;95078.53;;;10.84;88.44
9538;BME280;4807;48.024;11.726;2022-10-16T03:03:06;95084.66;;;10.78;88.69
9538;BME280;4807;48.024;11.726;2022-10-16T03:06:16;95078.53;;;10.84;88.24
9538;BME280;4807;48.024;11.726;2022-10-16T03:09:24;95087.09;;;10.80;87.93
9538;BME280;4807;48.024;11.726;2022-10-16T03:12:32;95095.06;;;10.73;88.66
9538;BME280;4807;48.024;11.726;2022-10-16T03:15:41;95089.50;;;10.68;88.34
9538;BME280;4807;48.024;11.726;2022-10-16T03:18:50;95081.50;;;10.61;88.30
9538;BME280;4807;48.024;11.726;2022-10-16T03:21:59;95070.03;;;10.61;88.76
9538;BME280;4807;48.024;11.726;2022-10-16T03:25:08;95078.44;;;10.71;88.23
9538;BME280;4807;48.024;11.726;2022-10-16T03:28:16;95082.75;;;10.72;88.44
9538;BME280;4807;48.024;11.726;2022-10-16T03:31:25;95081.56;;;10.75;88.44
9538;BME280;4807;48.024;11.726;2022-10-16T03:34:33;95084.81;;;10.70;88.95
9538;BME280;4807;48.024;11.726;2022-10-16T03:37:43;95086.50;;;10.78;88.21
9538;BME280;4807;48.024;11.726;2022-10-16T03:40:51;95099.38;;;10.74;88.31
9538;BME280;4807;48.024;11.726;2022-10-16T03:44:00;95104.91;;;10.79;88.34
9538;BME280;4807;48.024;11.726;2022-10-16T03:47:09;95107.56;;;10.79;88.40
9538;BME280;4807;48.024;11.726;2022-10-16T03:50:17;95105.38;;;10.89;88.17
9538;BME280;4807;48.024;11.726;2022-10-16T03:53:26;95102.31;;;10.92;88.68
9538;BME280;4807;48.024;11.726;2022-10-16T03:56:35;95101.72;;;11.03;88.46
9538;BME280;4807;48.024;11.726;2022-10-16T03:59:44;95104.63;;;11.08;88.49
9538;BME280;4807;48.024;11.726;2022-10-16T04:02:52;95105.88;;;11.13;88.41
9538;BME280;4807;48.024;11.726;2022-10-16T04:06:00;95110.41;;;11.19;89.06
9538;BME280;4807;48.024;11.726;2022-10-16T04:09:10;95109.41;;;11.26;88.65
9538;BME280;4807;48.024;11.726;2022-10-16T04:12:18;95101.00;;;11.36;88.47
9538;BME280;4807;48.024;11.726;2022-10-16T04:15:27;95093.03;;;11.42;88.57
9538;BME280;4807;48.024;11.726;2022-10-16T04:18:35;95093.47;;;11.59;87.02
9538;BME280;4807;48.024;11.726;2022-10-16T04:21:44;95089.56;;;11.55;87.44
9538;BME280;4807;48.024;11.726;2022-10-16T04:24:54;95087.91;;;11.61;87.73
9538;BME280;4807;48.024;11.726;2022-10-16T04:28:03;95093.06;;;11.69;87.37
9538;BME280;4807;48.024;11.726;2022-10-16T04:31:11;95102.50;;;11.71;87.09
9538;BME280;4807;48.024;11.726;2022-10-16T04:34:20;95099.03;;;11.77;86.57
9538;BME280;4807;48.024;11.726;2022-10-16T04:37:29;95103.78;;;11.75;86.67
9538;BME280;4807;48.024;11.726;2022-10-16T04:40:42;95105.38;;;11.70;87.75
9538;BME280;4807;48.024;11.726;2022-10-16T04:43:50;95097.19;;;11.84;86.19
9538;BME280;4807;48.024;11.726;2022-10-16T04:46:59;95092.50;;;11.87;86.22
9538;BME280;4807;48.024;11.726;2022-10-16T04:50:08;95099.91;;;11.91;86.09
9538;BME280;4807;48.024;11.726;2022-10-16T04:53:18;95098.03;;;11.92;85.97
9538;BME280;4807;48.024;11.726;2022-10-16T04:56:28;95100.91;;;11.90;85.48
9538;BME280;4807;48.024;11.726;2022-10-16T04:59:38;95090.03;;;11.92;86.12
9538;BME280;4807;48.024;11.726;2022-10-16T05:02:50;95089.63;;;11.95;85.52
9538;BME280;4807;48.024;11.726;2022-10-16T05:06:00;95090.44;;;11.95;85.31
9538;BME280;4807;48.024;11.726;2022-10-16T05:09:09;95089.41;;;12.03;85.46
9538;BME280;4807;48.024;11.726;2022-10-16T05:12:19;95093.94;;;11.96;85.39
9538;BME280;4807;48.024;11.726;2022-10-16T05:15:27;95102.13;;;11.94;86.03
9538;BME280;4807;48.024;11.726;2022-10-16T05:18:36;95097.22;;;12.04;85.07
9538;BME280;4807;48.024;11.726;2022-10-16T05:21:46;95088.59;;;12.02;85.40
9538;BME280;4807;48.024;11.726;2022-10-16T05:24:55;95087.75;;;12.02;85.82
9538;BME280;4807;48.024;11.726;2022-10-16T05:28:05;95080.97;;;12.12;85.31
9538;BME280;4807;48.024;11.726;2022-10-16T05:31:13;95092.88;;;12.10;84.83
9538;BME280;4807;48.024;11.726;2022-10-16T05:34:21;95090.81;;;12.18;84.75
9538;BME280;4807;48.024;11.726;2022-10-16T05:37:30;95095.13;;;12.26;84.82
9538;BME280;4807;48.024;11.726;2022-10-16T05:40:38;95095.13;;;12.33;84.07
9538;BME280;4807;48.024;11.726;2022-10-16T05:43:48;95102.53;;;12.24;84.50
9538;BME280;4807;48.024;11.726;2022-10-16T05:46:57;95100.06;;;12.22;84.53
9538;BME280;4807;48.024;11.726;2022-10-16T05:50:07;95107.66;;;12.19;84.66
9538;BME280;4807;48.024;11.726;2022-10-16T05:53:15;95121.63;;;12.21;84.73
9538;BME280;4807;48.024;11.726;2022-10-16T05:56:24;95131.69;;;12.19;83.81
9538;BME280;4807;48.024;11.726;2022-10-16T05:59:33;95134.78;;;12.22;84.75
9538;BME280;4807;48.024;11.726;2022-10-16T06:02:42;95129.63;;;12.34;84.28
9538;BME280;4807;48.024;11.726;2022-10-16T06:05:52;95135.94;;;12.59;82.67
9538;BME280;4807;48.024;11.726;2022-10-16T06:09:01;95140.09;;;12.55;83.01
9538;BME280;4807;48.024;11.726;2022-10-16T06:12:09;95144.78;;;12.60;83.83
9538;BME280;4807;48.024;11.726;2022-10-16T06:15:19;95140.25;;;12.80;82.77
9538;BME280;4807;48.024;11.726;2022-10-16T06:18:28;95147.00;;;12.83;82.66
9538;BME280;4807;48.024;11.726;2022-10-16T06:21:37;95144.88;;;12.98;82.64
9538;BME280;4807;48.024;11.726;2022-10-16T06:24:46;95152.47;;;13.14;81.68
9538;BME280;4807;48.024;11.726;2022-10-16T06:27:54;95157.78;;;13.27;81.35
9538;BME280;4807;48.024;11.726;2022-10-16T06:31:06;95154.66;;;13.30;82.06
9538;BME280;4807;48.024;11.726;2022-10-16T06:34:15;95148.66;;;13.42;81.29
9538;BME280;4807;48.024;11.726;2022-10-16T06:37:23;95156.03;;;13.46;80.76
9538;BME280;4807;48.024;11.726;2022-10-16T06:40:33;95155.13;;;13.65;80.47
9538;BME280;4807;48.024;11.726;2022-10-16T06:43:41;95153.78;;;13.81;79.95
9538;BME280;4807;48.024;11.726;2022-10-16T06:46:52;95159.03;;;14.01;79.18
9538;BME280;4807;48.024;11.726;2022-10-16T06:50:01;95173.16;;;14.08;79.28
9538;BME280;4807;48.024;11.726;2022-10-16T06:53:11;95163.72;;;14.05;78.68
9538;BME280;4807;48.024;11.726;2022-10-16T06:56:22;95174.59;;;14.10;79.47
9538;BME280;4807;48.024;11.726;2022-10-16T06:59:31;95180.28;;;14.21;79.43
9538;BME280;4807;48.024;11.726;2022-10-16T07:02:41;95192.75;;;14.40;78.33
9538;BME280;4807;48.024;11.726;2022-10-16T07:05:51;95194.72;;;14.51;77.63
9538;BME280;4807;48.024;11.726;2022-10-16T07:09:19;95198.75;;;14.60;76.72
9538;BME280;4807;48.024;11.726;2022-10-16T07:12:38;95200.38;;;14.61;77.51
9538;BME280;4807;48.024;11.726;2022-10-16T07:15:47;95210.28;;;14.61;77.34
9538;BME280;4807;48.024;11.726;2022-10-16T07:18:59;95207.16;;;14.64;76.93
9538;BME280;4807;48.024;11.726;2022-10-16T07:22:08;95199.41;;;14.80;76.80
9538;BME280;4807;48.024;11.726;2022-10-16T07:25:17;95208.72;;;14.96;77.05
9538;BME280;4807;48.024;11.726;2022-10-16T07:28:26;95216.59;;;15.16;76.28
9538;BME280;4807;48.024;11.726;2022-10-16T07:31:35;95218.69;;;15.32;75.19
9538;BME280;4807;48.024;11.726;2022-10-16T07:34:46;95215.44;;;15.42;75.28
9538;BME280;4807;48.024;11.726;2022-10-16T07:37:55;95211.97;;;15.59;74.68
9538;BME280;4807;48.024;11.726;2022-10-16T07:41:05;95222.09;;;15.76;74.23
9538;BME280;4807;48.024;11.726;2022-10-16T07:44:16;95225.78;;;15.93;73.47
9538;BME280;4807;48.024;11.726;2022-10-16T07:47:25;95229.16;;;16.18;73.43
9538;BME280;4807;48.024;11.726;2022-10-16T07:50:36;95234.47;;;16.36;72.28
9538;BME280;4807;48.024;11.726;2022-10-16T07:53:45;95234.97;;;16.57;72.36
9538;BME280;4807;48.024;11.726;2022-10-16T07:56:54;95241.91;;;16.64;70.79
9538;BME280;4807;48.024;11.726;2022-10-16T08:00:03;95244.41;;;16.77;69.78
9538;BME280;4807;48.024;11.726;2022-10-16T08:03:18;95242.91;;;16.93;69.35
9538;BME280;4807;48.024;11.726;2022-10-16T08:06:28;95243.38;;;17.13;69.68
9538;BME280;4807;48.024;11.726;2022-10-16T08:09:36;95240.31;;;17.33;68.53
9538;BME280;4807;48.024;11.726;2022-10-16T08:12:45;95252.25;;;17.49;67.17
9538;BME280;4807;48.024;11.726;2022-10-16T08:15:54;95251.88;;;17.57;68.61
9538;BME280;4807;48.024;11.726;2022-10-16T08:19:03;95264.41;;;17.63;67.64
9538;BME280;4807;48.024;11.726;2022-10-16T08:22:13;95265.34;;;17.69;68.15
9538;BME280;4807;48.024;11.726;2022-10-16T08:25:23;95250.91;;;17.86;66.44
9538;BME280;4807;48.024;11.726;2022-10-16T08:28:32;95257.75;;;18.06;66.42
9538;BME280;4807;48.024;11.726;2022-10-16T08:31:41;95259.53;;;18.28;66.26
9538;BME280;4807;48.024;11.726;2022-10-16T08:34:49;95263.72;;;18.36;66.03
9538;BME280;4807;48.024;11.726;2022-10-16T08:37:59;95263.50;;;18.38;65.48
9538;BME280;4807;48.024;11.726;2022-10-16T08:48:43;95263.28;;;19.01;63.22
9538;BME280;4807;48.024;11.726;2022-10-16T08:51:55;95271.44;;;19.06;63.52
9538;BME280;4807;48.024;11.726;2022-10-16T08:55:06;95282.22;;;19.06;62.54
9538;BME280;4807;48.024;11.726;2022-10-16T08:58:28;95279.28;;;19.08;63.14
9538;BME280;4807;48.024;11.726;2022-10-16T09:01:41;95286.50;;;19.19;63.78
9538;BME280;4807;48.024;11.726;2022-10-16T09:05:23;95291.91;;;19.52;60.42
9538;BME280;4807;48.024;11.726;2022-10-16T09:08:46;95297.13;;;19.59;60.62
9538;BME280;4807;48.024;11.726;2022-10-16T09:12:12;95291.34;;;19.72;58.50
9538;BME280;4807;48.024;11.726;2022-10-16T09:15:33;95295.34;;;19.86;56.92
9538;BME280;4807;48.024;11.726;2022-10-16T09:18:53;95295.53;;;20.01;58.02
9538;BME280;4807;48.024;11.726;2022-10-16T09:22:12;95301.72;;;20.18;56.94
9538;BME280;4807;48.024;11.726;2022-10-16T09:25:22;95301.19;;;20.22;55.68
9538;BME280;4807;48.024;11.726;2022-10-16T09:28:32;95313.28;;;20.36;55.21
9538;BME280;4807;48.024;11.726;2022-10-16T09:31:43;95311.38;;;20.58;54.49
9538;BME280;4807;48.024;11.726;2022-10-16T09:34:55;95304.31;;;20.84;54.82
9538;BME280;4807;48.024;11.726;2022-10-16T09:38:05;95301.06;;;20.82;53.79
9538;BME280;4807;48.024;11.726;2022-10-16T09:41:19;95296.00;;;20.90;53.78
9538;BME280;4807;48.024;11.726;2022-10-16T09:44:31;95298.38;;;21.14;53.04
9538;BME280;4807;48.024;11.726;2022-10-16T09:47:42;95294.75;;;21.30;53.96
9538;BME280;4807;48.024;11.726;2022-10-16T09:51:00;95298.13;;;21.47;52.00
9538;BME280;4807;48.024;11.726;2022-10-16T09:54:16;95301.44;;;21.54;50.76
9538;BME280;4807;48.024;11.726;2022-10-16T09:57:26;95294.28;;;21.80;50.23
9538;BME280;4807;48.024;11.726;2022-10-16T10:00:42;95300.03;;;21.89;50.12
9538;BME280;4807;48.024;11.726;2022-10-16T10:03:58;95302.19;;;21.87;50.04
9538;BME280;4807;48.024;11.726;2022-10-16T10:07:21;95303.91;;;22.03;50.19
9538;BME280;4807;48.024;11.726;2022-10-16T10:10:39;95305.56;;;22.09;51.29
9538;BME280;4807;48.024;11.726;2022-10-16T10:13:49;95302.69;;;22.31;49.98
9538;BME280;4807;48.024;11.726;2022-10-16T10:17:16;95300.81;;;22.36;50.30
9538;BME280;4807;48.024;11.726;2022-10-16T10:20:28;95310.34;;;22.49;49.48
9538;BME280;4807;48.024;11.726;2022-10-16T10:23:40;95305.47;;;22.51;49.54
9538;BME280;4807;48.024;11.726;2022-10-16T10:26:58;95303.06;;;22.60;48.30
9538;BME280;4807;48.024;11.726;2022-10-16T10:30:19;95298.19;;;22.72;49.94
9538;BME280;4807;48.024;11.726;2022-10-16T10:33:41;95302.59;;;22.88;47.74
9538;BME280;4807;48.024;11.726;2022-10-16T10:37:02;95304.25;;;22.94;49.65
9538;BME280;4807;48.024;11.726;2022-10-16T10:40:29;95297.72;;;22.95;49.56
9538;BME280;4807;48.024;11.726;2022-10-16T10:43:53;95293.63;;;22.88;47.04
9538;BME280;4807;48.024;11.726;2022-10-16T10:47:19;95302.63;;;22.98;46.06
9538;BME280;4807;48.024;11.726;2022-10-16T10:50:43;95304.78;;;22.96;47.43
9538;BME280;4807;48.024;11.726;2022-10-16T10:54:10;95300.19;;;23.02;45.18
9538;BME280;4807;48.024;11.726;2022-10-16T10:57:31;95302.09;;;23.11;43.90
9538;BME280;4807;48.024;11.726;2022-10-16T11:00:57;95302.38;;;23.10;41.58
9538;BME280;4807;48.024;11.726;2022-10-16T11:04:48;95296.94;;;23.20;42.47
9538;BME280;4807;48.024;11.726;2022-10-16T11:08:06;95304.25;;;23.19;41.40
9538;BME280;4807;48.024;11.726;2022-10-16T11:11:23;95298.56;;;23.21;41.10
9538;BME280;4807;48.024;11.726;2022-10-16T11:14:40;95304.81;;;23.16;41.15
9538;BME280;4807;48.024;11.726;2022-10-16T11:17:55;95296.66;;;23.21;42.67
9538;BME280;4807;48.024;11.726;2022-10-16T11:21:10;95299.38;;;23.16;41.34
9538;BME280;4807;48.024;11.726;2022-10-16T11:24:36;95299.94;;;23.24;39.36
9538;BME280;4807;48.024;11.726;2022-10-16T11:27:54;95294.75;;;23.12;39.30
9538;BME280;4807;48.024;11.726;2022-10-16T11:31:14;95298.28;;;23.12;41.02
9538;BME280;4807;48.024;11.726;2022-10-16T11:34:32;95291.22;;;23.01;42.66
9538;BME280;4807;48.024;11.726;2022-10-16T11:37:46;95290.66;;;23.04;41.36
9538;BME280;4807;48.024;11.726;2022-10-16T11:41:03;95294.78;;;23.17;42.10
9538;BME280;4807;48.024;11.726;2022-10-16T11:44:35;95290.16;;;23.23;40.79
9538;BME280;4807;48.024;11.726;2022-10-16T11:47:56;95295.59;;;23.17;41.73
9538;BME280;4807;48.024;11.726;2022-10-16T11:51:16;95290.69;;;23.14;40.64
9538;BME280;4807;48.024;11.726;2022-10-16T11:54:36;95282.00;;;23.33;38.83
9538;BME280;4807;48.024;11.726;2022-10-16T11:57:52;95285.25;;;23.30;39.64
9538;BME280;4807;48.024;11.726;2022-10-16T12:01:18;95289.06;;;23.24;37.98
9538;BME280;4807;48.024;11.726;2022-10-16T12:04:43;95286.88;;;23.20;39.92
9538;BME280;4807;48.024;11.726;2022-10-16T12:08:06;95283.63;;;23.18;36.99
9538;BME280;4807;48.024;11.726;2022-10-16T12:11:34;95289.59;;;23.26;38.22
9538;BME280;4807;48.024;11.726;2022-10-16T12:14:44;95289.84;;;23.19;37.10
9538;BME280;4807;48.024;11.726;2022-10-16T12:18:21;95279.81;;;23.30;38.71
9538;BME280;4807;48.024;11.726;2022-10-16T12:21:31;95280.38;;;23.42;39.49
9538;BME280;4807;48.024;11.726;2022-10-16T12:24:42;95281.72;;;23.39;38.85
9538;BME280;4807;48.024;11.726;2022-10-16T12:28:00;95280.09;;;23.38;38.57
9538;BME280;4807;48.024;11.726;2022-10-16T12:31:11;95287.41;;;23.38;38.26
9538;BME280;4807;48.024;11.726;2022-10-16T12:34:28;95286.88;;;23.41;37.12
9538;BME280;4807;48.024;11.726;2022-10-16T12:37:38;95291.25;;;23.42;37.70
9538;BME280;4807;48.024;11.726;2022-10-16T12:40:58;95277.09;;;23.40;38.22
9538;BME280;4807;48.024;11.726;2022-10-16T12:44:23;95276.28;;;23.29;38.01
9538;BME280;4807;48.024;11.726;2022-10-16T12:47:49;95282.81;;;23.18;40.13
9538;BME280;4807;48.024;11.726;2022-10-16T12:51:11;95289.84;;;23.19;41.28
9538;BME280;4807;48.024;11.726;2022-10-16T12:54:28;95284.72;;;23.33;37.46
9538;BME280;4807;48.024;11.726;2022-10-16T12:58:00;95282.00;;;23.43;38.72
9538;BME280;4807;48.024;11.726;2022-10-16T13:01:26;95273.84;;;23.33;39.13
9538;BME280;4807;48.024;11.726;2022-10-16T13:04:54;95282.00;;;23.17;39.00
9538;BME280;4807;48.024;11.726;2022-10-16T13:08:43;95282.53;;;23.30;38.75
9538;BME280;4807;48.024;11.726;2022-10-16T13:12:28;95275.47;;;23.34;41.32
9538;BME280;4807;48.024;11.726;2022-10-16T13:16:01;95286.34;;;23.24;38.35
9538;BME280;4807;48.024;11.726;2022-10-16T13:19:21;95276.00;;;23.20;37.28
9538;BME280;4807;48.024;11.726;2022-10-16T13:22:44;95286.34;;;23.08;37.89
9538;BME280;4807;48.024;11.726;2022-10-16T13:26:17;95292.31;;;23.10;38.35
9538;BME280;4807;48.024;11.726;2022-10-16T13:29:33;95282.53;;;23.19;37.81
9538;BME280;4807;48.024;11.726;2022-10-16T13:32:46;95287.97;;;23.09;37.96
9538;BME280;4807;48.024;11.726;2022-10-16T13:35:57;95297.75;;;23.10;37.03
9538;BME280;4807;48.024;11.726;2022-10-16T13:39:14;95294.47;;;23.03;37.80
9538;BME280;4807;48.024;11.726;2022-10-16T13:42:27;95300.47;;;23.20;38.11
9538;BME280;4807;48.024;11.726;2022-10-16T13:45:36;95290.69;;;23.25;39.14
9538;BME280;4807;48.024;11.726;2022-10-16T13:48:56;95289.06;;;23.34;37.12
9538;BME280;4807;48.024;11.726;2022-10-16T13:52:05;95286.63;;;23.22;37.79
9538;BME280;4807;48.024;11.726;2022-10-16T13:55:19;95296.38;;;23.13;38.98
9538;BME280;4807;48.024;11.726;2022-10-16T13:58:33;95289.84;;;22.99;39.86
9538;BME280;4807;48.024;11.726;2022-10-16T14:01:43;95296.66;;;23.16;38.10
9538;BME280;4807;48.024;11.726;2022-10-16T14:04:53;95284.19;;;23.26;36.51
9538;BME280;4807;48.024;11.726;2022-10-16T14:08:02;95297.75;;;23.10;37.70
9538;BME280;4807;48.024;11.726;2022-10-16T14:11:12;95298.28;;;23.12;37.87
9538;BME280;4807;48.024;11.726;2022-10-16T14:14:22;95302.09;;;23.06;37.93
9538;BME280;4807;48.024;11.726;2022-10-16T14:17:34;95295.03;;;23.26;37.05
9538;BME280;4807;48.024;11.726;2022-10-16T14:20:44;95304.28;;;23.09;37.21
9538;BME280;4807;48.024;11.726;2022-10-16T14:23:53;95299.91;;;22.93;39.01
9538;BME280;4807;48.024;11.726;2022-10-16T14:27:28;95304.75;;;22.76;40.04
9538;BME280;4807;48.024;11.726;2022-10-16T14:30:37;95298.81;;;22.84;37.93
9538;BME280;4807;48.024;11.726;2022-10-16T14:33:45;95308.03;;;22.83;38.93
9538;BME280;4807;48.024;11.726;2022-10-16T14:36:56;95305.88;;;23.00;37.88
9538;BME280;4807;48.024;11.726;2022-10-16T14:40:15;95311.03;;;22.97;36.85
9538;BME280;4807;48.024;11.726;2022-10-16T14:43:32;95309.66;;;22.89;37.46
9538;BME280;4807;48.024;11.726;2022-10-16T14:46:43;95314.28;;;22.83;38.62
9538;BME280;4807;48.024;11.726;2022-10-16T14:49:54;95309.13;;;22.82;38.60
9538;BME280;4807;48.024;11.726;2022-10-16T14:53:11;95308.59;;;22.90;37.09
9538;BME280;4807;48.024;11.726;2022-10-16T14:56:24;95308.84;;;22.89;37.48
9538;BME280;4807;48.024;11.726;2022-10-16T14:59:39;95306.16;;;22.94;42.66
9538;BME280;4807;48.024;11.726;2022-10-16T15:02:51;95309.94;;;22.82;41.75
9538;BME280;4807;48.024;11.726;2022-10-16T15:06:00;95311.72;;;22.57;41.31
9538;BME280;4807;48.024;11.726;2022-10-16T15:09:08;95309.03;;;22.67;39.60
9538;BME280;4807;48.024;11.726;2022-10-16T15:12:18;95309.53;;;22.49;40.01
9538;BME280;4807;48.024;11.726;2022-10-16T15:15:38;95306.22;;;22.31;40.95
9538;BME280;4807;48.024;11.726;2022-10-16T15:18:48;95305.56;;;22.04;42.25
9538;BME280;4807;48.024;11.726;2022-10-16T15:21:57;95308.41;;;21.87;42.92
9538;BME280;4807;48.024;11.726;2022-10-16T15:25:31;95313.13;;;21.60;43.68
9538;BME280;4807;48.024;11.726;2022-10-16T15:28:41;95311.16;;;21.50;44.32
9538;BME280;4807;48.024;11.726;2022-10-16T15:31:51;95319.38;;;21.28;46.70
9538;BME280;4807;48.024;11.726;2022-10-16T15:35:00;95320.03;;;21.14;46.34
9538;BME280;4807;48.024;11.726;2022-10-16T15:38:12;95325.88;;;21.01;48.46
9538;BME280;4807;48.024;11.726;2022-10-16T15:41:21;95337.53;;;20.74;49.37
9538;BME280;4807;48.024;11.726;2022-10-16T15:44:30;95334.13;;;20.62;50.39
9538;BME280;4807;48.024;11.726;2022-10-16T15:47:41;95337.63;;;20.58;50.83
9538;BME280;4807;48.024;11.726;2022-10-16T15:50:52;95334.66;;;20.37;51.48
9538;BME280;4807;48.024;11.726;2022-10-16T15:54:00;95335.13;;;20.12;53.18
9538;BME280;4807;48.024;11.726;2022-10-16T15:57:09;95336.44;;;19.88;54.26
9538;BME280;4807;48.024;11.726;2022-10-16T16:00:20;95333.44;;;19.68;55.63
9538;BME280;4807;48.024;11.726;2022-10-16T16:03:32;95337.72;;;19.47;57.00
9538;BME280;4807;48.024;11.726;2022-10-16T16:06:41;95340.91;;;19.27;57.75
9538;BME280;4807;48.024;11.726;2022-10-16T16:09:51;95334.31;;;19.06;58.65
9538;BME280;4807;48.024;11.726;2022-10-16T16:13:00;95346.19;;;18.89;60.32
9538;BME280;4807;48.024;11.726;2022-10-16T16:16:12;95349.09;;;18.71;62.08
9538;BME280;4807;48.024;11.726;2022-10-16T16:19:24;95344.91;;;18.51;62.68
9538;BME280;4807;48.024;11.726;2022-10-16T16:22:33;95347.75;;;18.33;62.64
9538;BME280;4807;48.024;11.726;2022-10-16T16:25:42;95355.53;;;18.18;63.90
9538;BME280;4807;48.024;11.726;2022-10-16T16:28:50;95356.63;;;18.05;64.94
9538;BME280;4807;48.024;11.726;2022-10-16T16:32:00;95361.47;;;17.91;65.30
9538;BME280;4807;48.024;11.726;2022-10-16T16:35:10;95359.59;;;17.80;66.32
9538;BME280;4807;48.024;11.726;2022-10-16T16:38:19;95362.53;;;17.67;67.14
9538;BME280;4807;48.024;11.726;2022-10-16T16:41:30;95368.13;;;17.54;68.03
9538;BME280;4807;48.024;11.726;2022-10-16T16:44:39;95364.59;;;17.42;68.78
9538;BME280;4807;48.024;11.726;2022-10-16T16:47:48;95378.28;;;17.29;68.70
9538;BME280;4807;48.024;11.726;2022-10-16T16:51:04;95371.69;;;17.13;69.17
9538;BME280;4807;48.024;11.726;2022-10-16T16:54:13;95383.50;;;17.00;70.57
9538;BME280;4807;48.024;11.726;2022-10-16T16:57:21;95382.16;;;16.91;71.13
9538;BME280;4807;48.024;11.726;2022-10-16T17:00:30;95395.56;;;16.79;71.44
9538;BME280;4807;48.024;11.726;2022-10-16T17:03:43;95404.78;;;16.72;72.30
9538;BME280;4807;48.024;11.726;2022-10-16T17:06:55;95411.50;;;16.63;71.82
9538;BME280;4807;48.024;11.726;2022-10-16T17:10:04;95409.28;;;16.60;72.21
9538;BME280;4807;48.024;11.726;2022-10-16T17:13:13;95415.88;;;16.46;72.25
9538;BME280;4807;48.024;11.726;2022-10-16T17:16:23;95408.56;;;16.34;72.86
9538;BME280;4807;48.024;11.726;2022-10-16T17:19:32;95422.28;;;16.26;73.01
9538;BME280;4807;48.024;11.726;2022-10-16T17:22:42;95421.69;;;16.42;74.04
9538;BME280;4807;48.024;11.726;2022-10-16T17:25:51;95425.94;;;16.32;74.62